createdAt,value
2018-06-04T00:01:12.418Z,148399.72
2018-06-04T00:03:43.581Z,148376.03
2018-06-04T00:06:14.680Z,148346.14
2018-06-04T00:08:46.452Z,148341.17
2018-06-04T00:11:17.404Z,148348.69
2018-06-04T00:13:48.546Z,148356.14
2018-06-04T00:16:19.489Z,148346.14
2018-06-04T00:18:50.329Z,148352.41
2018-06-04T00:21:21.507Z,148307.59
2018-06-04T00:23:52.962Z,148308.84
2018-06-04T00:26:23.987Z,148329.97
2018-06-04T00:28:55.749Z,148361.11
2018-06-04T00:31:26.794Z,148356.14
2018-06-04T00:33:58.521Z,148366.09
2018-06-04T00:36:29.346Z,148343.66
2018-06-04T00:39:02.323Z,148321.28
2018-06-04T00:41:33.345Z,148308.84
2018-06-04T00:44:04.570Z,148316.30
2018-06-04T00:46:35.448Z,148326.25
2018-06-04T00:49:08.678Z,148343.66
2018-06-04T00:51:39.730Z,148347.44
2018-06-04T00:54:11.012Z,148358.62
2018-06-04T00:56:42.929Z,148366.09
2018-06-04T00:59:13.937Z,148357.38
2018-06-04T01:01:44.867Z,148384.75
2018-06-04T01:04:15.995Z,148381.02
2018-06-04T01:06:46.973Z,148379.78
2018-06-04T01:09:18.005Z,148381.02
2018-06-04T01:11:49.103Z,148353.66
2018-06-04T01:14:22.887Z,148356.14
2018-06-04T01:16:53.763Z,148344.91
2018-06-04T01:19:24.892Z,148331.22
2018-06-04T01:21:56.038Z,148302.63
2018-06-04T01:24:29.563Z,148296.34
2018-06-04T01:27:00.529Z,148251.50
2018-06-04T01:29:31.710Z,148221.66
2018-06-04T01:32:02.515Z,148212.95
2018-06-04T01:37:09.961Z,148271.44
2018-06-04T01:39:40.968Z,148286.41
2018-06-04T01:42:12.021Z,148323.75
2018-06-04T01:44:42.886Z,148368.58
2018-06-04T01:47:13.817Z,148338.69
2018-06-04T01:49:44.731Z,148371.06
2018-06-04T01:52:16.437Z,148364.84
2018-06-04T01:54:47.622Z,148361.11
2018-06-04T01:57:18.613Z,148343.66
2018-06-04T01:59:50.207Z,148351.16
2018-06-04T02:02:21.105Z,148364.84
2018-06-04T02:04:51.980Z,148390.97
2018-06-04T02:07:23.910Z,148398.47
2018-06-04T02:09:54.816Z,148408.42
2018-06-04T02:12:26.564Z,148413.41
2018-06-04T02:14:57.579Z,148408.42
2018-06-04T02:20:08.314Z,148424.59
2018-06-04T02:22:39.169Z,148440.77
2018-06-04T02:25:12.286Z,148429.58
2018-06-04T02:27:43.580Z,148420.88
2018-06-04T02:30:14.579Z,148403.45
2018-06-04T02:32:45.231Z,148408.42
2018-06-04T02:37:51.828Z,148423.34
2018-06-04T02:40:22.650Z,148419.62
2018-06-04T02:45:34.313Z,148389.72
2018-06-04T02:48:05.263Z,148405.94
2018-06-04T02:50:37.093Z,148417.14
2018-06-04T02:53:08.126Z,148430.81
2018-06-04T02:55:39.158Z,148456.98
2018-06-04T02:58:10.248Z,148479.38
2018-06-04T03:00:41.598Z,148481.88
2018-06-04T03:03:12.699Z,148491.87
2018-06-04T03:05:43.794Z,148503.06
2018-06-04T03:08:14.648Z,148513.06
2018-06-04T03:10:46.412Z,148538.00
2018-06-04T03:13:18.726Z,148564.14
2018-06-04T03:15:51.224Z,148585.34
2018-06-04T03:18:22.001Z,148602.77
2018-06-04T03:20:52.761Z,148608.98
2018-06-04T03:23:23.773Z,148587.83
2018-06-04T03:25:57.531Z,148605.25
2018-06-04T03:28:28.388Z,148653.84
2018-06-04T03:33:35.626Z,148680.03
2018-06-04T03:36:07.191Z,148699.95
2018-06-04T03:41:14.144Z,148698.70
2018-06-04T03:43:45.080Z,148671.27
2018-06-04T03:46:16.770Z,148625.17
2018-06-04T03:48:48.689Z,148615.22
2018-06-04T03:51:20.472Z,148618.94
2018-06-04T03:53:51.371Z,148655.09
2018-06-04T03:56:22.513Z,148676.25
2018-06-04T03:58:53.389Z,148699.95
2018-06-04T04:01:24.498Z,148732.41
2018-06-04T04:03:55.379Z,148763.55
2018-06-04T04:06:28.184Z,148778.53
2018-06-04T04:09:00.306Z,148814.64
2018-06-04T04:11:31.181Z,148840.84
2018-06-04T04:14:02.084Z,148852.06
2018-06-04T04:16:33.207Z,148858.28
2018-06-04T04:19:04.336Z,148867.05
2018-06-04T04:21:35.473Z,148896.94
2018-06-04T04:24:06.427Z,148921.95
2018-06-04T04:26:38.118Z,148894.44
2018-06-04T04:29:09.003Z,148870.78
2018-06-04T04:34:17.085Z,148946.86
2018-06-04T04:36:48.054Z,148978.06
2018-06-04T04:39:19.038Z,148960.56
2018-06-04T04:41:49.833Z,148989.27
2018-06-04T04:44:21.316Z,149004.22
2018-06-04T04:46:53.093Z,149024.20
2018-06-04T04:49:24.167Z,149035.42
2018-06-04T04:52:01.346Z,149086.56
2018-06-04T04:54:33.156Z,149152.77
2018-06-04T04:57:06.012Z,149208.91
2018-06-04T04:59:36.928Z,149248.84
2018-06-04T05:02:09.524Z,149298.78
2018-06-04T05:04:40.329Z,149307.50
2018-06-04T05:07:11.191Z,149328.75
2018-06-04T05:09:42.380Z,149343.77
2018-06-04T05:12:14.454Z,149331.25
2018-06-04T05:14:45.309Z,149333.75
2018-06-04T05:17:16.305Z,149298.78
2018-06-04T05:19:47.450Z,149318.78
2018-06-04T05:22:20.014Z,149268.81
2018-06-04T05:24:50.907Z,149293.80
2018-06-04T05:27:22.921Z,149321.28
2018-06-04T05:29:54.209Z,149318.78
2018-06-04T05:32:25.104Z,149286.25
2018-06-04T05:34:57.333Z,149297.53
2018-06-04T05:42:40.287Z,149293.80
2018-06-04T05:45:11.395Z,149323.77
2018-06-04T05:47:43.385Z,149367.47
2018-06-04T05:50:15.423Z,149368.72
2018-06-04T05:52:46.384Z,149407.42
2018-06-04T05:55:17.292Z,149421.16
2018-06-04T05:57:49.968Z,149444.91
2018-06-04T06:00:20.477Z,149498.64
2018-06-04T06:02:51.101Z,149584.84
2018-06-04T06:05:21.642Z,149588.59
2018-06-04T06:07:52.280Z,149588.59
2018-06-04T06:10:22.837Z,149523.59
2018-06-04T06:12:55.077Z,149549.84
2018-06-04T06:15:25.738Z,149539.88
2018-06-04T06:17:56.447Z,149436.17
2018-06-04T06:20:26.962Z,149396.20
2018-06-04T06:22:58.038Z,149481.08
2018-06-04T06:25:28.723Z,149553.59
2018-06-04T06:28:00.210Z,149613.55
2018-06-04T06:30:30.775Z,149587.34
2018-06-04T06:33:02.320Z,149626.08
2018-06-04T06:35:33.142Z,149591.08
2018-06-04T06:38:04.564Z,149653.53
2018-06-04T06:40:35.016Z,149687.33
2018-06-04T06:43:05.690Z,149631.06
2018-06-04T06:45:36.265Z,149661.03
2018-06-04T06:48:07.711Z,149646.05
2018-06-04T06:50:38.795Z,149777.31
2018-06-04T06:53:10.286Z,149816.08
2018-06-04T06:55:40.872Z,149848.59
2018-06-04T06:58:13.670Z,149917.38
2018-06-04T07:00:44.219Z,150032.45
2018-06-04T07:03:16.838Z,150227.66
2018-06-04T07:05:47.385Z,150468.05
2018-06-04T07:08:19.652Z,150637.19
2018-06-04T07:10:50.934Z,150638.44
2018-06-04T07:13:21.518Z,150657.25
2018-06-04T07:15:52.409Z,150938.03
2018-06-04T07:18:23.022Z,151456.28
2018-06-04T07:20:55.678Z,151645.95
2018-06-04T07:26:02.199Z,151432.45
2018-06-04T07:28:32.683Z,151367.16
2018-06-04T07:31:03.201Z,151251.70
2018-06-04T07:33:33.670Z,151188.91
2018-06-04T07:36:19.878Z,151118.69
2018-06-04T07:38:50.517Z,151047.14
2018-06-04T07:43:56.935Z,150822.72
2018-06-04T07:46:27.475Z,150882.88
2018-06-04T07:48:58.947Z,150882.88
2018-06-04T07:51:29.548Z,150852.78
2018-06-04T07:54:01.452Z,151099.89
2018-06-04T07:56:32.003Z,151203.98
2018-06-04T07:59:02.552Z,151055.95
2018-06-04T08:01:33.172Z,150923.00
2018-06-04T08:04:04.697Z,150777.56
2018-06-04T08:06:35.343Z,150662.27
2018-06-04T08:09:07.312Z,150554.50
2018-06-04T08:11:37.760Z,150552.00
2018-06-04T08:14:09.253Z,150594.59
2018-06-04T08:16:39.831Z,150577.08
2018-06-04T08:19:10.437Z,150579.58
2018-06-04T08:21:42.210Z,150521.94
2018-06-04T08:24:13.724Z,150451.78
2018-06-04T08:26:44.237Z,150381.66
2018-06-04T08:29:14.854Z,150461.78
2018-06-04T08:31:45.341Z,150506.92
2018-06-04T08:34:15.876Z,150430.47
2018-06-04T08:36:46.375Z,150464.30
2018-06-04T08:39:17.036Z,150498.16
2018-06-04T08:41:47.602Z,150521.94
2018-06-04T08:44:19.705Z,150525.69
2018-06-04T08:46:50.270Z,150560.77
2018-06-04T08:49:20.907Z,150589.59
2018-06-04T08:51:51.464Z,150653.50
2018-06-04T08:54:22.025Z,150634.69
2018-06-04T08:56:52.925Z,150598.34
2018-06-04T08:59:25.073Z,150559.52
2018-06-04T09:01:55.610Z,150540.75
2018-06-04T09:07:01.838Z,150548.25
2018-06-04T09:09:32.349Z,150538.25
2018-06-04T09:14:38.538Z,150669.83
2018-06-04T09:17:09.029Z,150676.08
2018-06-04T09:19:40.625Z,150662.27
2018-06-04T09:22:11.114Z,150658.52
2018-06-04T09:24:42.848Z,150654.75
2018-06-04T09:27:14.044Z,150672.33
2018-06-04T09:29:44.968Z,150697.36
2018-06-04T09:32:16.009Z,150757.48
2018-06-04T09:34:48.724Z,150832.75
2018-06-04T09:37:19.682Z,150683.59
2018-06-04T09:39:50.272Z,150739.95
2018-06-04T09:42:20.881Z,150875.36
2018-06-04T09:44:51.651Z,150955.66
2018-06-04T09:47:22.411Z,150974.44
2018-06-04T09:49:52.926Z,150968.17
2018-06-04T09:52:23.495Z,150854.03
2018-06-04T09:54:54.112Z,150920.48
2018-06-04T09:57:24.691Z,150896.66
2018-06-04T09:59:56.840Z,150803.91
2018-06-04T10:02:28.481Z,150548.25
2018-06-04T10:04:59.840Z,150034.95
2018-06-04T10:07:30.406Z,149537.38
2018-06-04T10:10:01.763Z,149203.92
2018-06-04T10:12:32.662Z,148833.38
2018-06-04T10:15:04.489Z,148510.58
2018-06-04T10:17:35.309Z,148271.44
2018-06-04T10:20:06.277Z,148082.31
2018-06-04T10:22:36.955Z,147975.31
2018-06-04T10:25:07.959Z,147919.31
2018-06-04T10:27:38.848Z,147931.78
2018-06-04T10:30:11.421Z,147962.84
2018-06-04T10:32:43.354Z,148020.09
2018-06-04T10:37:52.313Z,148098.47
2018-06-04T10:40:23.061Z,148102.19
2018-06-04T10:42:53.900Z,148185.56
2018-06-04T10:45:24.569Z,148250.25
2018-06-04T10:47:58.257Z,148336.19
2018-06-04T10:50:29.105Z,148409.67
2018-06-04T10:55:36.359Z,148595.30
2018-06-04T10:58:07.222Z,148615.22
2018-06-04T11:00:38.643Z,148732.41
2018-06-04T11:03:14.126Z,148807.17
2018-06-04T11:05:46.743Z,148908.16
2018-06-04T11:08:17.645Z,148940.64
2018-06-04T11:10:48.736Z,149010.50
2018-06-04T11:13:20.043Z,149086.56
2018-06-04T11:15:50.937Z,149154.02
2018-06-04T11:18:21.716Z,149207.66
2018-06-04T11:20:52.607Z,149256.34
2018-06-04T11:23:23.849Z,149328.75
2018-06-04T11:25:55.629Z,149374.95
2018-06-04T11:28:26.469Z,149408.67
2018-06-04T11:30:57.146Z,149444.91
2018-06-04T11:33:27.921Z,149478.58
2018-06-04T11:36:01.260Z,149489.86
2018-06-04T11:38:33.366Z,149461.13
2018-06-04T11:41:04.920Z,149407.42
2018-06-04T11:43:35.581Z,149394.95
2018-06-04T11:46:06.973Z,149421.16
2018-06-04T11:48:37.981Z,149448.64
2018-06-04T11:53:45.986Z,149408.67
2018-06-04T11:56:16.778Z,149345.02
2018-06-04T11:58:48.639Z,149321.28
2018-06-04T12:01:19.466Z,149167.72
2018-06-04T12:03:50.308Z,149144.00
2018-06-04T12:06:21.039Z,149096.53
2018-06-04T12:08:53.790Z,149120.31
2018-06-04T12:11:25.021Z,149124.05
2018-06-04T12:13:55.839Z,149168.97
2018-06-04T12:16:26.454Z,149211.41
2018-06-04T12:18:59.183Z,149237.59
2018-06-04T12:21:30.383Z,149246.36
2018-06-04T12:24:02.235Z,149205.17
2018-06-04T12:26:32.876Z,149106.56
2018-06-04T12:29:03.891Z,149060.39
2018-06-04T12:31:34.787Z,148542.98
2018-06-04T12:34:05.767Z,148175.62
2018-06-04T12:36:36.929Z,148069.88
2018-06-04T12:39:11.945Z,147980.28
2018-06-04T15:14:57.466Z,148812.16
2018-06-04T15:17:28.542Z,148855.78
2018-06-04T15:20:01.340Z,148832.12
2018-06-04T15:22:32.327Z,148762.30
2018-06-04T15:27:38.981Z,148820.92
2018-06-04T15:30:09.957Z,148784.75
2018-06-04T15:32:41.106Z,148716.13
2018-06-04T15:35:12.023Z,148706.17
2018-06-04T15:37:43.455Z,148706.17
2018-06-04T15:40:14.631Z,148726.19
2018-06-04T15:42:46.619Z,148736.16
2018-06-04T15:45:18.311Z,148703.69
2018-06-04T15:47:50.401Z,148731.17
2018-06-04T15:50:21.461Z,148752.34
2018-06-04T15:52:55.092Z,148782.27
2018-06-04T15:57:41.367Z,148731.17
2018-06-04T16:00:12.498Z,148696.22
2018-06-04T16:02:44.413Z,148650.11
2018-06-04T16:05:15.672Z,148657.58
2018-06-04T16:07:47.145Z,148637.66
2018-06-04T16:10:18.786Z,148627.66
2018-06-04T16:12:49.840Z,148662.56
2018-06-04T16:15:21.712Z,148714.89
2018-06-04T16:17:53.645Z,148749.84
2018-06-04T16:23:02.048Z,148788.50
2018-06-04T16:25:34.953Z,148772.25
2018-06-04T16:28:07.279Z,148779.78
2018-06-04T16:30:38.490Z,148797.22
2018-06-04T16:33:10.351Z,148688.75
2018-06-04T16:35:43.566Z,148711.16
2018-06-04T16:40:53.462Z,148722.41
2018-06-04T16:43:24.363Z,148746.11
2018-06-04T16:45:55.527Z,148728.69
2018-06-04T16:48:27.268Z,148737.39
2018-06-04T16:51:00.488Z,148742.38
2018-06-04T16:53:32.384Z,148727.44
2018-06-04T16:56:03.351Z,148714.89
2018-06-04T16:58:34.290Z,148691.23
2018-06-04T17:01:06.382Z,148687.50
2018-06-04T17:03:39.003Z,148699.95
2018-06-04T17:06:10.972Z,148650.11
2018-06-04T17:08:41.991Z,148660.06
2018-06-04T17:11:14.595Z,148673.75
2018-06-04T17:13:45.443Z,148655.09
2018-06-04T17:16:16.549Z,148645.13
2018-06-04T17:18:47.476Z,148631.44
2018-06-04T17:21:19.640Z,148630.14
2018-06-04T17:23:50.936Z,148612.72
2018-06-04T17:26:24.051Z,148564.14
2018-06-04T17:28:55.049Z,148557.92
2018-06-04T17:31:26.809Z,148555.42
2018-06-04T17:33:57.893Z,148542.98
2018-06-04T17:36:29.149Z,148538.00
2018-06-04T17:39:00.309Z,148536.77
2018-06-04T17:41:32.285Z,148518.05
2018-06-04T17:44:03.770Z,148518.05
2018-06-04T17:46:40.174Z,148495.61
2018-06-04T17:49:11.333Z,148496.84
2018-06-04T17:54:18.935Z,148475.66
2018-06-04T17:56:49.748Z,148493.11
2018-06-04T17:59:22.483Z,148493.11
2018-06-04T18:01:53.623Z,148468.19
2018-06-04T18:04:24.891Z,148468.19
2018-06-04T18:06:56.311Z,148483.11
2018-06-04T18:09:27.990Z,148465.69
2018-06-04T18:11:59.198Z,148444.55
2018-06-04T18:14:30.312Z,148440.77
2018-06-04T18:17:01.297Z,148458.23
2018-06-04T18:19:32.479Z,148466.94
2018-06-04T18:22:04.619Z,148455.75
2018-06-04T18:24:35.646Z,148464.45
2018-06-04T18:27:06.818Z,148443.31
2018-06-04T18:29:38.018Z,148459.48
2018-06-04T18:32:09.258Z,148432.06
2018-06-04T18:34:41.448Z,148385.98
2018-06-04T18:37:12.688Z,148383.50
2018-06-04T18:39:43.791Z,148351.16
2018-06-04T18:42:15.071Z,148366.09
2018-06-04T18:44:47.570Z,148398.47
2018-06-04T18:47:18.845Z,148402.22
2018-06-04T18:49:51.165Z,148414.64
2018-06-04T18:52:22.311Z,148429.58
2018-06-04T18:54:55.116Z,148430.81
2018-06-04T18:57:26.165Z,148417.14
2018-06-04T18:59:57.306Z,148369.83
2018-06-04T19:02:28.625Z,148388.48
2018-06-04T19:04:59.847Z,148379.78
2018-06-04T19:07:30.809Z,148338.69
2018-06-04T19:10:03.439Z,148321.28
2018-06-04T19:12:35.273Z,148310.08
2018-06-04T19:15:08.530Z,148323.75
2018-06-04T19:17:39.987Z,148298.84
2018-06-04T19:20:12.857Z,148307.59
2018-06-04T19:22:44.085Z,148333.70
2018-06-04T19:25:15.016Z,148323.75
2018-06-04T19:27:45.835Z,148303.86
2018-06-04T19:30:17.789Z,148293.88
2018-06-04T19:32:48.898Z,148303.86
2018-06-04T19:35:19.836Z,148323.75
2018-06-04T19:37:50.890Z,148331.22
2018-06-04T19:40:21.894Z,148341.17
2018-06-04T19:42:53.332Z,148352.41
2018-06-04T19:45:25.089Z,148374.80
2018-06-04T19:47:56.049Z,148388.48
2018-06-04T19:50:27.139Z,148393.45
2018-06-04T19:52:58.084Z,148407.19
2018-06-04T19:55:29.340Z,148422.11
2018-06-04T19:58:01.170Z,148432.06
2018-06-04T20:00:32.368Z,148440.77
2018-06-04T20:03:03.302Z,148448.28
2018-06-04T20:05:34.249Z,148452.02
2018-06-04T20:08:05.036Z,148453.25
2018-06-04T20:10:36.122Z,148443.31
2018-06-04T20:13:06.924Z,148440.77
2018-06-04T20:15:39.539Z,148430.81
2018-06-04T20:18:11.350Z,148417.14
2018-06-04T20:23:18.284Z,148368.58
2018-06-04T20:25:49.233Z,148383.50
2018-06-04T20:28:22.068Z,148395.98
2018-06-04T20:30:52.696Z,148385.98
2018-06-04T20:33:24.277Z,148351.16
2018-06-04T20:35:55.234Z,148316.30
2018-06-04T20:38:26.920Z,148296.34
2018-06-04T20:40:57.850Z,148308.84
2018-06-04T20:43:28.808Z,148312.56
2018-06-04T20:45:59.697Z,148322.52
2018-06-04T20:48:33.663Z,148301.37
2018-06-04T20:51:04.427Z,148286.41
2018-06-04T20:53:36.680Z,148273.92
2018-06-04T20:56:07.481Z,148292.63
2018-06-04T20:58:38.392Z,148292.63
2018-06-04T21:01:09.359Z,148275.17
2018-06-04T21:03:40.212Z,148201.72
2018-06-04T21:06:11.155Z,148219.17
2018-06-04T21:08:42.611Z,148219.17
2018-06-04T21:11:13.528Z,148246.53
2018-06-04T21:13:47.116Z,148230.36
2018-06-04T21:16:18.710Z,148250.25
2018-06-04T21:18:50.057Z,148282.67
2018-06-04T21:21:20.812Z,148301.37
2018-06-04T21:23:51.799Z,148297.59
2018-06-04T21:26:24.387Z,148296.34
2018-06-04T21:28:55.255Z,148272.69
2018-06-04T21:31:25.955Z,148280.14
2018-06-04T21:33:57.780Z,148311.33
2018-06-04T21:36:28.874Z,148341.17
2018-06-04T21:39:00.474Z,148353.66
2018-06-04T21:41:32.188Z,148357.38
2018-06-04T21:44:03.842Z,148347.44
2018-06-04T21:46:34.754Z,148336.19
2018-06-04T21:49:05.576Z,148337.44
2018-06-04T21:51:36.538Z,148325.00
2018-06-04T21:54:09.183Z,148313.81
2018-06-04T21:56:40.253Z,148311.33
2018-06-04T21:59:15.540Z,148315.06
2018-06-04T22:01:47.472Z,148321.28
2018-06-04T22:04:18.675Z,148307.59
2018-06-04T22:06:49.869Z,148300.12
2018-06-04T22:09:24.348Z,148254.03
2018-06-04T22:11:56.762Z,148225.39
2018-06-04T22:14:28.442Z,148263.97
2018-06-04T22:16:59.483Z,148268.95
2018-06-04T22:19:32.114Z,148286.41
2018-06-04T22:22:02.827Z,148296.34
2018-06-04T22:24:33.679Z,148286.41
2018-06-04T22:27:06.797Z,148298.84
2018-06-04T22:29:37.697Z,148308.84
2018-06-04T22:32:09.357Z,148308.84
2018-06-04T22:34:40.330Z,148283.92
2018-06-04T22:37:11.305Z,148283.92
2018-06-04T22:39:42.305Z,148290.14
2018-06-04T22:42:13.217Z,148288.89
2018-06-04T22:44:45.201Z,148292.63
2018-06-04T22:47:17.362Z,148292.63
2018-06-04T22:52:25.287Z,148278.91
2018-06-04T22:54:56.095Z,148257.77
2018-06-04T22:57:28.757Z,148256.52
2018-06-04T22:59:59.647Z,148250.25
2018-06-04T23:05:11.072Z,148210.47
2018-06-04T23:07:42.318Z,148194.27
2018-06-04T23:10:15.018Z,148198.00
2018-06-04T23:12:47.970Z,148189.30
2018-06-04T23:15:20.554Z,148204.20
2018-06-04T23:17:51.365Z,148209.22
2018-06-04T23:20:23.134Z,148176.86
2018-06-04T23:22:55.295Z,148188.05
2018-06-04T23:25:28.115Z,148174.38
2018-06-04T23:28:02.763Z,148181.83
2018-06-04T23:30:34.214Z,148175.62
2018-06-04T23:33:05.649Z,148130.81
2018-06-04T23:38:12.931Z,148139.52
2018-06-04T23:40:45.487Z,148132.06
2018-06-04T23:43:16.946Z,148144.50
2018-06-04T23:45:47.794Z,148149.47
2018-06-04T23:48:18.684Z,148146.98
2018-06-04T23:50:53.371Z,148149.47
2018-06-04T23:53:25.753Z,148158.17
2018-06-04T23:55:56.639Z,148155.69
2018-06-04T23:58:27.715Z,148159.45
